Terminal Aerodrome Forecast
Issued by NWS

Home | Current Version | Previous Version | Text Only | Print | Product List | Glossary On
Versions: 1 2 3 4 5 6 7 8 9 10 11 12 13
000
FTUS46 KSTO 281700
TAFMHR
TAF
KMHR 281724Z 2818/2918 17005KT P6SM SCT150 BKN200
     FM290000 VRB04KT P6SM OVC050
     FM290400 VRB04KT 3SM -RA OVC015=

USA.gov is the U.S. government's official web portal to all federal, state and local government web resources and services.